sensor_id;sensor_type;location;lat;lon;timestamp;P1;durP1;ratioP1;P2;durP2;ratioP2
5121;SDS011;2563;52.242;7.956;2022-08-11T00:00:10;16.70;;;7.30;;
5121;SDS011;2563;52.242;7.956;2022-08-11T00:02:41;13.07;;;5.90;;
5121;SDS011;2563;52.242;7.956;2022-08-11T00:05:12;10.50;;;4.90;;
5121;SDS011;2563;52.242;7.956;2022-08-11T00:07:43;8.50;;;4.30;;
5121;SDS011;2563;52.242;7.956;2022-08-11T00:10:23;11.37;;;4.73;;
5121;SDS011;2563;52.242;7.956;2022-08-11T00:12:57;12.30;;;4.47;;
5121;SDS011;2563;52.242;7.956;2022-08-11T00:15:25;8.10;;;4.60;;
5121;SDS011;2563;52.242;7.956;2022-08-11T00:17:56;10.70;;;4.40;;
5121;SDS011;2563;52.242;7.956;2022-08-11T00:20:27;13.30;;;5.03;;
5121;SDS011;2563;52.242;7.956;2022-08-11T00:22:59;13.00;;;5.43;;
5121;SDS011;2563;52.242;7.956;2022-08-11T00:25:46;9.27;;;4.63;;
5121;SDS011;2563;52.242;7.956;2022-08-11T00:28:24;6.83;;;3.90;;
5121;SDS011;2563;52.242;7.956;2022-08-11T00:30:54;7.30;;;4.00;;
5121;SDS011;2563;52.242;7.956;2022-08-11T00:33:23;10.17;;;4.83;;
5121;SDS011;2563;52.242;7.956;2022-08-11T00:35:56;12.23;;;5.50;;
5121;SDS011;2563;52.242;7.956;2022-08-11T00:38:24;8.43;;;4.50;;
5121;SDS011;2563;52.242;7.956;2022-08-11T00:46:32;6.37;;;3.60;;
5121;SDS011;2563;52.242;7.956;2022-08-11T00:52:12;6.87;;;4.10;;
5121;SDS011;2563;52.242;7.956;2022-08-11T00:55:06;5.53;;;3.47;;
5121;SDS011;2563;52.242;7.956;2022-08-11T00:57:52;5.20;;;3.70;;
5121;SDS011;2563;52.242;7.956;2022-08-11T01:01:26;5.17;;;3.50;;
5121;SDS011;2563;52.242;7.956;2022-08-11T01:09:40;16.70;;;7.60;;
5121;SDS011;2563;52.242;7.956;2022-08-11T01:31:40;8.30;;;4.00;;
5121;SDS011;2563;52.242;7.956;2022-08-11T01:42:55;8.90;;;4.07;;
5121;SDS011;2563;52.242;7.956;2022-08-11T01:56:28;9.37;;;3.90;;
5121;SDS011;2563;52.242;7.956;2022-08-11T02:04:44;16.53;;;6.50;;
5121;SDS011;2563;52.242;7.956;2022-08-11T02:12:53;8.53;;;4.50;;
5121;SDS011;2563;52.242;7.956;2022-08-11T02:15:29;7.30;;;4.60;;
5121;SDS011;2563;52.242;7.956;2022-08-11T02:18:07;7.93;;;4.17;;
5121;SDS011;2563;52.242;7.956;2022-08-11T02:20:47;8.90;;;3.97;;
5121;SDS011;2563;52.242;7.956;2022-08-11T02:23:51;8.33;;;4.07;;
5121;SDS011;2563;52.242;7.956;2022-08-11T02:26:21;7.37;;;4.10;;
5121;SDS011;2563;52.242;7.956;2022-08-11T02:31:45;8.20;;;4.13;;
5121;SDS011;2563;52.242;7.956;2022-08-11T02:39:41;6.40;;;3.60;;
5121;SDS011;2563;52.242;7.956;2022-08-11T02:42:22;5.40;;;3.43;;
5121;SDS011;2563;52.242;7.956;2022-08-11T02:51:29;5.30;;;3.70;;
5121;SDS011;2563;52.242;7.956;2022-08-11T02:59:23;7.90;;;3.87;;
5121;SDS011;2563;52.242;7.956;2022-08-11T03:10:07;10.30;;;4.10;;
5121;SDS011;2563;52.242;7.956;2022-08-11T03:13:05;8.87;;;3.90;;
5121;SDS011;2563;52.242;7.956;2022-08-11T03:18:58;6.80;;;3.97;;
5121;SDS011;2563;52.242;7.956;2022-08-11T03:21:45;7.87;;;3.97;;
5121;SDS011;2563;52.242;7.956;2022-08-11T03:27:06;7.90;;;4.27;;
5121;SDS011;2563;52.242;7.956;2022-08-11T03:32:27;9.60;;;3.70;;
5121;SDS011;2563;52.242;7.956;2022-08-11T03:34:57;9.00;;;4.07;;
5121;SDS011;2563;52.242;7.956;2022-08-11T03:46:07;8.67;;;4.40;;
5121;SDS011;2563;52.242;7.956;2022-08-11T03:54:37;8.07;;;4.43;;
5121;SDS011;2563;52.242;7.956;2022-08-11T04:00:19;7.80;;;4.83;;
5121;SDS011;2563;52.242;7.956;2022-08-11T04:03:07;8.47;;;4.03;;
5121;SDS011;2563;52.242;7.956;2022-08-11T04:05:48;7.77;;;4.17;;
5121;SDS011;2563;52.242;7.956;2022-08-11T04:22:50;7.70;;;4.43;;
5121;SDS011;2563;52.242;7.956;2022-08-11T04:28:33;6.73;;;3.73;;
5121;SDS011;2563;52.242;7.956;2022-08-11T04:34:03;9.93;;;3.70;;
5121;SDS011;2563;52.242;7.956;2022-08-11T04:51:47;5.73;;;3.90;;
5121;SDS011;2563;52.242;7.956;2022-08-11T04:58:21;6.70;;;3.93;;
5121;SDS011;2563;52.242;7.956;2022-08-11T05:10:08;7.80;;;5.30;;
5121;SDS011;2563;52.242;7.956;2022-08-11T05:13:04;11.93;;;4.40;;
5121;SDS011;2563;52.242;7.956;2022-08-11T05:15:56;11.07;;;4.13;;
5121;SDS011;2563;52.242;7.956;2022-08-11T05:19:04;26.63;;;4.97;;
5121;SDS011;2563;52.242;7.956;2022-08-11T05:21:52;11.40;;;5.83;;
5121;SDS011;2563;52.242;7.956;2022-08-11T05:24:42;6.50;;;4.23;;
5121;SDS011;2563;52.242;7.956;2022-08-11T05:30:54;17.13;;;4.93;;
5121;SDS011;2563;52.242;7.956;2022-08-11T05:33:44;18.23;;;5.13;;
5121;SDS011;2563;52.242;7.956;2022-08-11T05:39:04;11.33;;;4.97;;
5121;SDS011;2563;52.242;7.956;2022-08-11T05:41:56;10.43;;;4.93;;
5121;SDS011;2563;52.242;7.956;2022-08-11T05:44:43;15.47;;;5.40;;
5121;SDS011;2563;52.242;7.956;2022-08-11T05:47:29;17.03;;;4.63;;
5121;SDS011;2563;52.242;7.956;2022-08-11T05:50:14;9.53;;;4.23;;
5121;SDS011;2563;52.242;7.956;2022-08-11T05:53:01;7.10;;;4.17;;
5121;SDS011;2563;52.242;7.956;2022-08-11T05:55:51;17.17;;;4.43;;
5121;SDS011;2563;52.242;7.956;2022-08-11T05:58:36;8.57;;;4.30;;
5121;SDS011;2563;52.242;7.956;2022-08-11T06:01:04;9.73;;;4.40;;
5121;SDS011;2563;52.242;7.956;2022-08-11T06:03:31;8.07;;;4.10;;
5121;SDS011;2563;52.242;7.956;2022-08-11T06:06:19;9.03;;;4.30;;
5121;SDS011;2563;52.242;7.956;2022-08-11T06:08:45;10.40;;;3.93;;
5121;SDS011;2563;52.242;7.956;2022-08-11T06:11:11;8.13;;;4.07;;
5121;SDS011;2563;52.242;7.956;2022-08-11T06:13:42;8.47;;;4.30;;
5121;SDS011;2563;52.242;7.956;2022-08-11T06:16:09;8.60;;;4.53;;
5121;SDS011;2563;52.242;7.956;2022-08-11T06:18:37;8.00;;;4.00;;
5121;SDS011;2563;52.242;7.956;2022-08-11T06:21:07;10.00;;;4.53;;
5121;SDS011;2563;52.242;7.956;2022-08-11T06:23:33;8.67;;;4.70;;
5121;SDS011;2563;52.242;7.956;2022-08-11T06:25:59;12.20;;;4.10;;
5121;SDS011;2563;52.242;7.956;2022-08-11T06:28:32;8.57;;;4.20;;
5121;SDS011;2563;52.242;7.956;2022-08-11T06:33:39;9.10;;;3.77;;
5121;SDS011;2563;52.242;7.956;2022-08-11T06:44:14;8.40;;;3.90;;
5121;SDS011;2563;52.242;7.956;2022-08-11T06:49:12;6.23;;;3.50;;
5121;SDS011;2563;52.242;7.956;2022-08-11T06:52:03;12.03;;;3.77;;
5121;SDS011;2563;52.242;7.956;2022-08-11T06:54:38;8.70;;;3.67;;
5121;SDS011;2563;52.242;7.956;2022-08-11T06:57:10;5.33;;;3.13;;
5121;SDS011;2563;52.242;7.956;2022-08-11T06:59:56;5.70;;;3.40;;
5121;SDS011;2563;52.242;7.956;2022-08-11T07:02:51;8.77;;;3.80;;
5121;SDS011;2563;52.242;7.956;2022-08-11T07:05:22;5.63;;;3.00;;
5121;SDS011;2563;52.242;7.956;2022-08-11T07:08:09;6.93;;;3.70;;
5121;SDS011;2563;52.242;7.956;2022-08-11T07:14:32;7.10;;;2.83;;
5121;SDS011;2563;52.242;7.956;2022-08-11T07:17:21;7.90;;;3.60;;
5121;SDS011;2563;52.242;7.956;2022-08-11T07:19:52;9.03;;;3.27;;
5121;SDS011;2563;52.242;7.956;2022-08-11T07:22:37;5.10;;;2.93;;
5121;SDS011;2563;52.242;7.956;2022-08-11T07:25:22;4.80;;;2.80;;
5121;SDS011;2563;52.242;7.956;2022-08-11T07:28:16;6.63;;;3.17;;
5121;SDS011;2563;52.242;7.956;2022-08-11T07:31:08;5.60;;;3.27;;
5121;SDS011;2563;52.242;7.956;2022-08-11T07:34:37;7.67;;;2.83;;
5121;SDS011;2563;52.242;7.956;2022-08-11T07:36:45;4.63;;;3.00;;
5121;SDS011;2563;52.242;7.956;2022-08-11T07:39:15;5.23;;;2.80;;
5121;SDS011;2563;52.242;7.956;2022-08-11T07:41:45;14.70;;;3.63;;
5121;SDS011;2563;52.242;7.956;2022-08-11T07:44:12;8.33;;;3.17;;
5121;SDS011;2563;52.242;7.956;2022-08-11T07:46:41;7.00;;;2.83;;
5121;SDS011;2563;52.242;7.956;2022-08-11T07:49:44;4.33;;;2.53;;
5121;SDS011;2563;52.242;7.956;2022-08-11T07:52:32;8.87;;;2.60;;
5121;SDS011;2563;52.242;7.956;2022-08-11T07:55:03;17.37;;;2.93;;
5121;SDS011;2563;52.242;7.956;2022-08-11T07:57:31;6.47;;;3.07;;
5121;SDS011;2563;52.242;7.956;2022-08-11T08:00:16;6.73;;;2.70;;
5121;SDS011;2563;52.242;7.956;2022-08-11T08:03:01;7.70;;;2.80;;
5121;SDS011;2563;52.242;7.956;2022-08-11T08:05:47;8.10;;;2.83;;
5121;SDS011;2563;52.242;7.956;2022-08-11T08:08:32;4.97;;;2.83;;
5121;SDS011;2563;52.242;7.956;2022-08-11T08:11:18;11.20;;;2.50;;
5121;SDS011;2563;52.242;7.956;2022-08-11T08:14:04;4.33;;;2.47;;
5121;SDS011;2563;52.242;7.956;2022-08-11T08:16:49;8.93;;;2.37;;
5121;SDS011;2563;52.242;7.956;2022-08-11T08:19:34;6.67;;;2.40;;
5121;SDS011;2563;52.242;7.956;2022-08-11T08:22:00;8.67;;;2.90;;
5121;SDS011;2563;52.242;7.956;2022-08-11T08:24:26;4.87;;;2.50;;
5121;SDS011;2563;52.242;7.956;2022-08-11T08:26:52;4.33;;;2.00;;
5121;SDS011;2563;52.242;7.956;2022-08-11T08:29:31;6.00;;;2.50;;
5121;SDS011;2563;52.242;7.956;2022-08-11T08:32:17;3.93;;;2.10;;
5121;SDS011;2563;52.242;7.956;2022-08-11T08:34:45;7.00;;;2.53;;
5121;SDS011;2563;52.242;7.956;2022-08-11T08:37:15;6.90;;;2.37;;
5121;SDS011;2563;52.242;7.956;2022-08-11T08:39:44;6.83;;;2.40;;
5121;SDS011;2563;52.242;7.956;2022-08-11T08:42:19;10.00;;;2.20;;
5121;SDS011;2563;52.242;7.956;2022-08-11T08:44:49;7.10;;;2.50;;
5121;SDS011;2563;52.242;7.956;2022-08-11T08:47:19;6.50;;;2.60;;
5121;SDS011;2563;52.242;7.956;2022-08-11T08:49:48;8.20;;;2.17;;
5121;SDS011;2563;52.242;7.956;2022-08-11T08:52:17;7.93;;;2.53;;
5121;SDS011;2563;52.242;7.956;2022-08-11T08:54:47;5.27;;;2.20;;
5121;SDS011;2563;52.242;7.956;2022-08-11T08:57:17;3.57;;;2.20;;
5121;SDS011;2563;52.242;7.956;2022-08-11T08:59:46;9.40;;;2.70;;
5121;SDS011;2563;52.242;7.956;2022-08-11T09:02:13;5.13;;;2.70;;
5121;SDS011;2563;52.242;7.956;2022-08-11T09:04:48;7.97;;;2.50;;
5121;SDS011;2563;52.242;7.956;2022-08-11T09:07:15;7.00;;;2.40;;
5121;SDS011;2563;52.242;7.956;2022-08-11T09:09:46;6.10;;;2.73;;
5121;SDS011;2563;52.242;7.956;2022-08-11T09:12:13;4.10;;;2.57;;
5121;SDS011;2563;52.242;7.956;2022-08-11T09:14:41;6.00;;;2.30;;
5121;SDS011;2563;52.242;7.956;2022-08-11T09:17:27;5.70;;;2.60;;
5121;SDS011;2563;52.242;7.956;2022-08-11T09:19:55;5.50;;;2.23;;
5121;SDS011;2563;52.242;7.956;2022-08-11T09:22:31;3.30;;;2.40;;
5121;SDS011;2563;52.242;7.956;2022-08-11T09:25:19;3.33;;;2.40;;
5121;SDS011;2563;52.242;7.956;2022-08-11T09:28:04;5.10;;;2.20;;
5121;SDS011;2563;52.242;7.956;2022-08-11T09:30:31;3.40;;;2.53;;
5121;SDS011;2563;52.242;7.956;2022-08-11T09:32:58;9.00;;;3.10;;
5121;SDS011;2563;52.242;7.956;2022-08-11T09:35:29;4.87;;;2.33;;
5121;SDS011;2563;52.242;7.956;2022-08-11T09:37:58;2.40;;;2.10;;
5121;SDS011;2563;52.242;7.956;2022-08-11T09:40:47;2.60;;;2.20;;
5121;SDS011;2563;52.242;7.956;2022-08-11T09:43:16;3.43;;;2.30;;
5121;SDS011;2563;52.242;7.956;2022-08-11T09:46:02;3.20;;;2.73;;
5121;SDS011;2563;52.242;7.956;2022-08-11T09:48:29;3.43;;;2.03;;
5121;SDS011;2563;52.242;7.956;2022-08-11T09:50:59;3.00;;;2.10;;
5121;SDS011;2563;52.242;7.956;2022-08-11T09:53:26;4.70;;;1.87;;
5121;SDS011;2563;52.242;7.956;2022-08-11T09:56:04;3.60;;;2.77;;
5121;SDS011;2563;52.242;7.956;2022-08-11T09:58:52;3.00;;;2.13;;
5121;SDS011;2563;52.242;7.956;2022-08-11T10:01:19;3.70;;;2.10;;
5121;SDS011;2563;52.242;7.956;2022-08-11T10:03:57;4.90;;;2.53;;
5121;SDS011;2563;52.242;7.956;2022-08-11T10:06:26;2.70;;;2.30;;
5121;SDS011;2563;52.242;7.956;2022-08-11T10:09:13;3.90;;;2.20;;
5121;SDS011;2563;52.242;7.956;2022-08-11T10:11:43;3.63;;;2.03;;
5121;SDS011;2563;52.242;7.956;2022-08-11T10:14:09;3.00;;;2.47;;
5121;SDS011;2563;52.242;7.956;2022-08-11T10:16:56;3.60;;;2.23;;
5121;SDS011;2563;52.242;7.956;2022-08-11T10:19:22;3.53;;;2.30;;
5121;SDS011;2563;52.242;7.956;2022-08-11T10:21:51;4.33;;;2.17;;
5121;SDS011;2563;52.242;7.956;2022-08-11T10:24:37;3.47;;;2.63;;
5121;SDS011;2563;52.242;7.956;2022-08-11T10:27:24;4.20;;;2.33;;
5121;SDS011;2563;52.242;7.956;2022-08-11T10:29:51;3.33;;;2.50;;
5121;SDS011;2563;52.242;7.956;2022-08-11T10:32:36;5.10;;;2.97;;
5121;SDS011;2563;52.242;7.956;2022-08-11T10:35:26;4.33;;;2.03;;
5121;SDS011;2563;52.242;7.956;2022-08-11T10:37:53;6.57;;;2.63;;
5121;SDS011;2563;52.242;7.956;2022-08-11T10:40:19;3.10;;;2.40;;
5121;SDS011;2563;52.242;7.956;2022-08-11T10:42:48;3.27;;;2.27;;
5121;SDS011;2563;52.242;7.956;2022-08-11T10:45:35;4.13;;;2.87;;
5121;SDS011;2563;52.242;7.956;2022-08-11T10:48:21;4.90;;;2.50;;
5121;SDS011;2563;52.242;7.956;2022-08-11T10:50:49;6.57;;;2.70;;
5121;SDS011;2563;52.242;7.956;2022-08-11T10:53:34;4.43;;;2.50;;
5121;SDS011;2563;52.242;7.956;2022-08-11T10:56:21;3.07;;;2.50;;
5121;SDS011;2563;52.242;7.956;2022-08-11T10:59:05;5.93;;;2.63;;
5121;SDS011;2563;52.242;7.956;2022-08-11T11:01:41;3.10;;;2.83;;
5121;SDS011;2563;52.242;7.956;2022-08-11T11:09:22;3.27;;;2.37;;
5121;SDS011;2563;52.242;7.956;2022-08-11T11:11:57;2.57;;;2.33;;
5121;SDS011;2563;52.242;7.956;2022-08-11T11:14:46;4.63;;;2.73;;
5121;SDS011;2563;52.242;7.956;2022-08-11T11:17:56;11.43;;;3.17;;
5121;SDS011;2563;52.242;7.956;2022-08-11T11:20:37;4.87;;;2.60;;
5121;SDS011;2563;52.242;7.956;2022-08-11T11:23:10;4.90;;;2.77;;
5121;SDS011;2563;52.242;7.956;2022-08-11T11:25:48;4.73;;;2.77;;
5121;SDS011;2563;52.242;7.956;2022-08-11T11:28:37;3.20;;;2.40;;
5121;SDS011;2563;52.242;7.956;2022-08-11T11:31:43;4.53;;;2.67;;
5121;SDS011;2563;52.242;7.956;2022-08-11T11:36:55;3.60;;;2.57;;
5121;SDS011;2563;52.242;7.956;2022-08-11T11:39:23;4.10;;;2.28;;
5121;SDS011;2563;52.242;7.956;2022-08-11T11:41:52;3.65;;;2.58;;
5121;SDS011;2563;52.242;7.956;2022-08-11T11:44:20;4.60;;;2.47;;
5121;SDS011;2563;52.242;7.956;2022-08-11T11:46:47;6.30;;;2.80;;
5121;SDS011;2563;52.242;7.956;2022-08-11T11:49:15;7.65;;;2.30;;
5121;SDS011;2563;52.242;7.956;2022-08-11T11:51:42;5.82;;;2.72;;
5121;SDS011;2563;52.242;7.956;2022-08-11T11:54:10;2.83;;;2.47;;
5121;SDS011;2563;52.242;7.956;2022-08-11T11:56:38;6.25;;;2.53;;
5121;SDS011;2563;52.242;7.956;2022-08-11T11:59:03;3.15;;;2.22;;
5121;SDS011;2563;52.242;7.956;2022-08-11T12:01:48;5.55;;;2.50;;
5121;SDS011;2563;52.242;7.956;2022-08-11T12:04:14;8.30;;;2.45;;
5121;SDS011;2563;52.242;7.956;2022-08-11T12:06:42;8.82;;;2.80;;
5121;SDS011;2563;52.242;7.956;2022-08-11T12:09:08;2.83;;;2.30;;
5121;SDS011;2563;52.242;7.956;2022-08-11T12:11:38;2.60;;;2.38;;
5121;SDS011;2563;52.242;7.956;2022-08-11T12:14:23;3.30;;;2.33;;
5121;SDS011;2563;52.242;7.956;2022-08-11T12:16:51;2.40;;;2.20;;
5121;SDS011;2563;52.242;7.956;2022-08-11T12:19:21;3.95;;;2.20;;
5121;SDS011;2563;52.242;7.956;2022-08-11T12:21:48;3.78;;;2.15;;
5121;SDS011;2563;52.242;7.956;2022-08-11T12:24:34;5.07;;;2.42;;
5121;SDS011;2563;52.242;7.956;2022-08-11T12:27:19;4.50;;;2.20;;
5121;SDS011;2563;52.242;7.956;2022-08-11T12:29:50;3.60;;;2.40;;
5121;SDS011;2563;52.242;7.956;2022-08-11T12:32:17;7.40;;;2.67;;
5121;SDS011;2563;52.242;7.956;2022-08-11T12:34:44;6.00;;;2.20;;
5121;SDS011;2563;52.242;7.956;2022-08-11T12:37:10;2.95;;;2.58;;
5121;SDS011;2563;52.242;7.956;2022-08-11T12:39:38;4.15;;;3.05;;
5121;SDS011;2563;52.242;7.956;2022-08-11T12:42:26;3.38;;;2.15;;
5121;SDS011;2563;52.242;7.956;2022-08-11T12:45:13;5.00;;;2.20;;
5121;SDS011;2563;52.242;7.956;2022-08-11T12:47:51;3.22;;;2.10;;
5121;SDS011;2563;52.242;7.956;2022-08-11T12:50:41;2.83;;;1.92;;
5121;SDS011;2563;52.242;7.956;2022-08-11T12:53:29;3.22;;;2.45;;
5121;SDS011;2563;52.242;7.956;2022-08-11T12:55:58;3.17;;;1.90;;
5121;SDS011;2563;52.242;7.956;2022-08-11T12:58:48;3.53;;;2.17;;
5121;SDS011;2563;52.242;7.956;2022-08-11T13:01:15;3.53;;;2.40;;
5121;SDS011;2563;52.242;7.956;2022-08-11T13:04:00;2.50;;;2.13;;
5121;SDS011;2563;52.242;7.956;2022-08-11T13:06:44;4.32;;;2.42;;
5121;SDS011;2563;52.242;7.956;2022-08-11T13:09:10;3.13;;;2.15;;
5121;SDS011;2563;52.242;7.956;2022-08-11T13:11:37;4.90;;;2.38;;
5121;SDS011;2563;52.242;7.956;2022-08-11T13:14:22;4.40;;;2.00;;
5121;SDS011;2563;52.242;7.956;2022-08-11T13:16:50;2.03;;;1.83;;
5121;SDS011;2563;52.242;7.956;2022-08-11T13:19:34;3.25;;;1.73;;
5121;SDS011;2563;52.242;7.956;2022-08-11T13:22:00;6.13;;;2.00;;
5121;SDS011;2563;52.242;7.956;2022-08-11T13:24:29;3.72;;;2.17;;
5121;SDS011;2563;52.242;7.956;2022-08-11T13:26:58;2.35;;;2.13;;
5121;SDS011;2563;52.242;7.956;2022-08-11T13:29:24;2.58;;;1.90;;
5121;SDS011;2563;52.242;7.956;2022-08-11T13:31:52;3.75;;;2.00;;
5121;SDS011;2563;52.242;7.956;2022-08-11T13:34:20;3.45;;;2.15;;
5121;SDS011;2563;52.242;7.956;2022-08-11T13:36:48;2.03;;;1.83;;
5121;SDS011;2563;52.242;7.956;2022-08-11T13:39:15;2.60;;;2.08;;
5121;SDS011;2563;52.242;7.956;2022-08-11T13:41:41;2.50;;;2.05;;
5121;SDS011;2563;52.242;7.956;2022-08-11T13:44:09;3.08;;;2.35;;
5121;SDS011;2563;52.242;7.956;2022-08-11T13:46:37;4.60;;;2.05;;
5121;SDS011;2563;52.242;7.956;2022-08-11T13:49:04;6.72;;;1.65;;
5121;SDS011;2563;52.242;7.956;2022-08-11T13:51:33;3.78;;;2.25;;
5121;SDS011;2563;52.242;7.956;2022-08-11T13:56:25;7.75;;;3.00;;
5121;SDS011;2563;52.242;7.956;2022-08-11T13:58:53;4.13;;;2.90;;
5121;SDS011;2563;52.242;7.956;2022-08-11T14:01:19;2.55;;;2.13;;
5121;SDS011;2563;52.242;7.956;2022-08-11T14:03:45;2.60;;;2.15;;
5121;SDS011;2563;52.242;7.956;2022-08-11T14:06:13;2.60;;;2.40;;
5121;SDS011;2563;52.242;7.956;2022-08-11T14:08:41;6.03;;;2.40;;
5121;SDS011;2563;52.242;7.956;2022-08-11T14:11:08;4.28;;;2.88;;
5121;SDS011;2563;52.242;7.956;2022-08-11T14:13:53;5.95;;;2.40;;
5121;SDS011;2563;52.242;7.956;2022-08-11T14:16:25;2.53;;;2.20;;
5121;SDS011;2563;52.242;7.956;2022-08-11T14:18:56;6.40;;;3.00;;
5121;SDS011;2563;52.242;7.956;2022-08-11T14:21:25;3.75;;;2.15;;
5121;SDS011;2563;52.242;7.956;2022-08-11T14:24:12;3.63;;;2.30;;
5121;SDS011;2563;52.242;7.956;2022-08-11T14:26:41;3.17;;;2.03;;
5121;SDS011;2563;52.242;7.956;2022-08-11T14:31:45;3.05;;;2.42;;
5121;SDS011;2563;52.242;7.956;2022-08-11T14:34:17;2.88;;;2.45;;
5121;SDS011;2563;52.242;7.956;2022-08-11T14:36:46;2.07;;;1.80;;
5121;SDS011;2563;52.242;7.956;2022-08-11T14:39:16;4.23;;;2.30;;
5121;SDS011;2563;52.242;7.956;2022-08-11T14:41:44;2.50;;;2.13;;
5121;SDS011;2563;52.242;7.956;2022-08-11T14:44:31;3.80;;;2.40;;
5121;SDS011;2563;52.242;7.956;2022-08-11T14:47:18;2.90;;;2.20;;
5121;SDS011;2563;52.242;7.956;2022-08-11T14:49:44;4.90;;;2.23;;
5121;SDS011;2563;52.242;7.956;2022-08-11T14:52:11;4.53;;;2.67;;
5121;SDS011;2563;52.242;7.956;2022-08-11T14:54:40;4.23;;;2.00;;
5121;SDS011;2563;52.242;7.956;2022-08-11T14:57:30;2.50;;;1.70;;
5121;SDS011;2563;52.242;7.956;2022-08-11T15:00:00;2.00;;;1.77;;
5121;SDS011;2563;52.242;7.956;2022-08-11T15:02:27;2.93;;;2.20;;
5121;SDS011;2563;52.242;7.956;2022-08-11T15:05:12;5.00;;;2.53;;
5121;SDS011;2563;52.242;7.956;2022-08-11T15:07:38;2.20;;;2.00;;
5121;SDS011;2563;52.242;7.956;2022-08-11T15:10:06;3.00;;;2.67;;
5121;SDS011;2563;52.242;7.956;2022-08-11T15:12:33;2.53;;;2.33;;
5121;SDS011;2563;52.242;7.956;2022-08-11T15:15:04;2.50;;;2.30;;
5121;SDS011;2563;52.242;7.956;2022-08-11T15:17:53;3.20;;;2.30;;
5121;SDS011;2563;52.242;7.956;2022-08-11T15:20:20;5.23;;;2.20;;
5121;SDS011;2563;52.242;7.956;2022-08-11T15:23:10;6.03;;;2.20;;
5121;SDS011;2563;52.242;7.956;2022-08-11T15:25:57;2.27;;;1.90;;
5121;SDS011;2563;52.242;7.956;2022-08-11T15:28:25;2.20;;;2.00;;
5121;SDS011;2563;52.242;7.956;2022-08-11T15:31:12;3.40;;;2.57;;
5121;SDS011;2563;52.242;7.956;2022-08-11T15:33:52;2.03;;;1.83;;
5121;SDS011;2563;52.242;7.956;2022-08-11T15:36:38;6.33;;;2.00;;
5121;SDS011;2563;52.242;7.956;2022-08-11T15:40:08;2.53;;;2.00;;
5121;SDS011;2563;52.242;7.956;2022-08-11T15:42:52;3.70;;;2.50;;
5121;SDS011;2563;52.242;7.956;2022-08-11T15:45:41;2.10;;;1.90;;
5121;SDS011;2563;52.242;7.956;2022-08-11T15:48:13;3.63;;;2.20;;
5121;SDS011;2563;52.242;7.956;2022-08-11T15:54:04;2.37;;;2.13;;
5121;SDS011;2563;52.242;7.956;2022-08-11T15:56:36;2.83;;;2.17;;
5121;SDS011;2563;52.242;7.956;2022-08-11T15:59:06;4.77;;;2.60;;
5121;SDS011;2563;52.242;7.956;2022-08-11T16:01:53;5.23;;;2.33;;
5121;SDS011;2563;52.242;7.956;2022-08-11T16:04:38;4.03;;;2.70;;
5121;SDS011;2563;52.242;7.956;2022-08-11T16:07:12;5.60;;;3.17;;
5121;SDS011;2563;52.242;7.956;2022-08-11T16:12:12;4.97;;;2.23;;
5121;SDS011;2563;52.242;7.956;2022-08-11T16:14:45;2.60;;;2.20;;
5121;SDS011;2563;52.242;7.956;2022-08-11T16:17:33;6.23;;;1.97;;
5121;SDS011;2563;52.242;7.956;2022-08-11T16:20:02;2.53;;;2.20;;
5121;SDS011;2563;52.242;7.956;2022-08-11T16:22:29;2.27;;;2.07;;
5121;SDS011;2563;52.242;7.956;2022-08-11T16:25:05;3.23;;;2.50;;
5121;SDS011;2563;52.242;7.956;2022-08-11T16:27:34;7.33;;;3.00;;
5121;SDS011;2563;52.242;7.956;2022-08-11T16:30:03;5.80;;;2.50;;
5121;SDS011;2563;52.242;7.956;2022-08-11T16:32:30;6.07;;;2.50;;
5121;SDS011;2563;52.242;7.956;2022-08-11T16:34:59;2.30;;;2.10;;
5121;SDS011;2563;52.242;7.956;2022-08-11T16:37:45;2.83;;;2.30;;
5121;SDS011;2563;52.242;7.956;2022-08-11T16:40:30;2.83;;;2.33;;
5121;SDS011;2563;52.242;7.956;2022-08-11T16:42:57;2.60;;;2.20;;
5121;SDS011;2563;52.242;7.956;2022-08-11T16:45:43;5.00;;;2.47;;
5121;SDS011;2563;52.242;7.956;2022-08-11T16:48:32;6.00;;;2.30;;
5121;SDS011;2563;52.242;7.956;2022-08-11T16:50:59;2.43;;;2.17;;
5121;SDS011;2563;52.242;7.956;2022-08-11T16:53:28;7.80;;;2.20;;
5121;SDS011;2563;52.242;7.956;2022-08-11T16:55:54;4.67;;;2.50;;
5121;SDS011;2563;52.242;7.956;2022-08-11T16:58:22;5.43;;;2.20;;
5121;SDS011;2563;52.242;7.956;2022-08-11T17:01:07;7.03;;;2.23;;
5121;SDS011;2563;52.242;7.956;2022-08-11T17:03:35;9.83;;;2.50;;
5121;SDS011;2563;52.242;7.956;2022-08-11T17:06:27;6.77;;;2.40;;
5121;SDS011;2563;52.242;7.956;2022-08-11T17:09:11;2.63;;;1.90;;
5121;SDS011;2563;52.242;7.956;2022-08-11T17:11:59;5.03;;;2.10;;
5121;SDS011;2563;52.242;7.956;2022-08-11T17:14:49;3.77;;;2.33;;
5121;SDS011;2563;52.242;7.956;2022-08-11T17:17:20;4.10;;;2.27;;
5121;SDS011;2563;52.242;7.956;2022-08-11T17:19:51;7.17;;;2.30;;
5121;SDS011;2563;52.242;7.956;2022-08-11T17:22:19;4.17;;;2.13;;
5121;SDS011;2563;52.242;7.956;2022-08-11T17:25:04;4.20;;;2.23;;
5121;SDS011;2563;52.242;7.956;2022-08-11T17:27:32;1.93;;;1.70;;
5121;SDS011;2563;52.242;7.956;2022-08-11T17:30:02;2.93;;;2.10;;
5121;SDS011;2563;52.242;7.956;2022-08-11T17:32:33;4.50;;;2.07;;
5121;SDS011;2563;52.242;7.956;2022-08-11T17:35:25;3.83;;;2.30;;
5121;SDS011;2563;52.242;7.956;2022-08-11T17:37:59;3.13;;;2.30;;
5121;SDS011;2563;52.242;7.956;2022-08-11T17:40:28;3.90;;;2.10;;
5121;SDS011;2563;52.242;7.956;2022-08-11T17:42:56;3.77;;;2.27;;
5121;SDS011;2563;52.242;7.956;2022-08-11T17:45:43;3.03;;;2.07;;
5121;SDS011;2563;52.242;7.956;2022-08-11T17:48:29;2.90;;;2.10;;
5121;SDS011;2563;52.242;7.956;2022-08-11T17:50:58;6.20;;;2.90;;
5121;SDS011;2563;52.242;7.956;2022-08-11T17:53:30;2.80;;;2.20;;
5121;SDS011;2563;52.242;7.956;2022-08-11T17:56:19;3.00;;;2.37;;
5121;SDS011;2563;52.242;7.956;2022-08-11T17:59:06;4.03;;;2.17;;
5121;SDS011;2563;52.242;7.956;2022-08-11T18:01:53;6.43;;;2.77;;
5121;SDS011;2563;52.242;7.956;2022-08-11T18:04:39;2.47;;;2.27;;
5121;SDS011;2563;52.242;7.956;2022-08-11T18:07:06;4.43;;;2.37;;
5121;SDS011;2563;52.242;7.956;2022-08-11T18:09:50;2.90;;;2.30;;
5121;SDS011;2563;52.242;7.956;2022-08-11T18:12:34;4.10;;;2.20;;
5121;SDS011;2563;52.242;7.956;2022-08-11T18:15:18;3.13;;;2.10;;
5121;SDS011;2563;52.242;7.956;2022-08-11T18:18:02;4.23;;;2.00;;
5121;SDS011;2563;52.242;7.956;2022-08-11T18:20:46;5.40;;;2.00;;
5121;SDS011;2563;52.242;7.956;2022-08-11T18:23:30;7.93;;;2.17;;
5121;SDS011;2563;52.242;7.956;2022-08-11T18:26:15;6.90;;;2.30;;
5121;SDS011;2563;52.242;7.956;2022-08-11T18:29:03;3.13;;;2.20;;
5121;SDS011;2563;52.242;7.956;2022-08-11T18:31:50;3.60;;;2.00;;
5121;SDS011;2563;52.242;7.956;2022-08-11T18:34:39;4.13;;;2.90;;
5121;SDS011;2563;52.242;7.956;2022-08-11T18:37:25;3.87;;;2.30;;
5121;SDS011;2563;52.242;7.956;2022-08-11T18:40:14;5.73;;;2.50;;
5121;SDS011;2563;52.242;7.956;2022-08-11T18:43:03;4.33;;;2.90;;
5121;SDS011;2563;52.242;7.956;2022-08-11T18:45:51;2.77;;;2.17;;
5121;SDS011;2563;52.242;7.956;2022-08-11T18:48:38;4.20;;;2.83;;
5121;SDS011;2563;52.242;7.956;2022-08-11T18:51:29;15.83;;;9.50;;
5121;SDS011;2563;52.242;7.956;2022-08-11T18:54:14;37.40;;;24.80;;
5121;SDS011;2563;52.242;7.956;2022-08-11T18:57:01;36.40;;;26.80;;
5121;SDS011;2563;52.242;7.956;2022-08-11T18:59:48;25.37;;;18.90;;
5121;SDS011;2563;52.242;7.956;2022-08-11T19:02:35;13.90;;;9.47;;
5121;SDS011;2563;52.242;7.956;2022-08-11T19:05:21;10.57;;;6.70;;
5121;SDS011;2563;52.242;7.956;2022-08-11T19:08:06;9.43;;;5.90;;
5121;SDS011;2563;52.242;7.956;2022-08-11T19:10:52;8.50;;;3.23;;
5121;SDS011;2563;52.242;7.956;2022-08-11T19:13:38;7.50;;;3.20;;
5121;SDS011;2563;52.242;7.956;2022-08-11T19:16:24;3.63;;;2.53;;
5121;SDS011;2563;52.242;7.956;2022-08-11T19:19:09;4.93;;;2.73;;
5121;SDS011;2563;52.242;7.956;2022-08-11T19:21:55;9.50;;;2.90;;
5121;SDS011;2563;52.242;7.956;2022-08-11T19:24:41;14.13;;;2.67;;
5121;SDS011;2563;52.242;7.956;2022-08-11T19:27:27;4.13;;;2.47;;
5121;SDS011;2563;52.242;7.956;2022-08-11T19:30:13;6.30;;;3.15;;
5121;SDS011;2563;52.242;7.956;2022-08-11T19:32:57;4.97;;;2.50;;
5121;SDS011;2563;52.242;7.956;2022-08-11T19:35:42;5.40;;;2.67;;
5121;SDS011;2563;52.242;7.956;2022-08-11T19:38:27;5.03;;;2.20;;
5121;SDS011;2563;52.242;7.956;2022-08-11T19:41:13;7.30;;;2.90;;
5121;SDS011;2563;52.242;7.956;2022-08-11T19:43:59;6.53;;;2.70;;
5121;SDS011;2563;52.242;7.956;2022-08-11T19:46:44;7.07;;;2.37;;